sensor_id;sensor_type;location;lat;lon;timestamp;pressure;altitude;pressure_sealevel;temperature;humidity
74372;BME280;62885;51.374;6.170;2024-03-17T00:00:16;63271.59;;;6.83;100.00
74372;BME280;62885;51.374;6.170;2024-03-17T00:02:44;63275.41;;;6.86;100.00
74372;BME280;62885;51.374;6.170;2024-03-17T00:05:09;63281.22;;;6.87;100.00
74372;BME280;62885;51.374;6.170;2024-03-17T00:07:34;63279.13;;;6.87;100.00
74372;BME280;62885;51.374;6.170;2024-03-17T00:10:00;63279.66;;;6.88;100.00
74372;BME280;62885;51.374;6.170;2024-03-17T00:12:25;63287.25;;;6.95;100.00
74372;BME280;62885;51.374;6.170;2024-03-17T00:14:51;63273.78;;;6.85;100.00
74372;BME280;62885;51.374;6.170;2024-03-17T00:17:19;63277.56;;;6.88;100.00
74372;BME280;62885;51.374;6.170;2024-03-17T00:19:46;63274.25;;;6.83;100.00
74372;BME280;62885;51.374;6.170;2024-03-17T00:22:11;63270.53;;;6.82;100.00
74372;BME280;62885;51.374;6.170;2024-03-17T00:24:38;63274.94;;;6.88;100.00
74372;BME280;62885;51.374;6.170;2024-03-17T00:27:04;63285.00;;;6.90;100.00
74372;BME280;62885;51.374;6.170;2024-03-17T00:29:29;63285.09;;;6.93;100.00
74372;BME280;62885;51.374;6.170;2024-03-17T00:31:55;63291.06;;;6.98;100.00
74372;BME280;62885;51.374;6.170;2024-03-17T00:34:20;63293.22;;;7.00;100.00
74372;BME280;62885;51.374;6.170;2024-03-17T00:36:46;63291.66;;;7.01;100.00
74372;BME280;62885;51.374;6.170;2024-03-17T00:39:11;63285.09;;;6.93;100.00
74372;BME280;62885;51.374;6.170;2024-03-17T00:41:37;63287.81;;;6.95;100.00
74372;BME280;62885;51.374;6.170;2024-03-17T00:44:04;63284.00;;;6.92;100.00
74372;BME280;62885;51.374;6.170;2024-03-17T00:46:29;63289.34;;;6.94;100.00
74372;BME280;62885;51.374;6.170;2024-03-17T00:48:54;63286.03;;;6.89;100.00
74372;BME280;62885;51.374;6.170;2024-03-17T00:51:20;63276.41;;;6.85;100.00
74372;BME280;62885;51.374;6.170;2024-03-17T00:53:46;63272.69;;;6.84;100.00
74372;BME280;62885;51.374;6.170;2024-03-17T00:56:11;63273.25;;;6.84;100.00
74372;BME280;62885;51.374;6.170;2024-03-17T00:58:37;63274.88;;;6.86;100.00
74372;BME280;62885;51.374;6.170;2024-03-17T01:01:03;63268.28;;;6.77;100.00
74372;BME280;62885;51.374;6.170;2024-03-17T01:03:29;63268.81;;;6.78;100.00
74372;BME280;62885;51.374;6.170;2024-03-17T01:05:54;63260.69;;;6.70;100.00
74372;BME280;62885;51.374;6.170;2024-03-17T01:08:20;63266.19;;;6.78;100.00
74372;BME280;62885;51.374;6.170;2024-03-17T01:10:46;63272.53;;;6.79;100.00
74372;BME280;62885;51.374;6.170;2024-03-17T01:13:15;63269.91;;;6.79;100.00
74372;BME280;62885;51.374;6.170;2024-03-17T01:15:41;63255.28;;;6.65;100.00
74372;BME280;62885;51.374;6.170;2024-03-17T01:18:09;63256.50;;;6.71;100.00
74372;BME280;62885;51.374;6.170;2024-03-17T01:20:36;63256.44;;;6.69;100.00
74372;BME280;62885;51.374;6.170;2024-03-17T01:23:05;63264.41;;;6.71;100.00
74372;BME280;62885;51.374;6.170;2024-03-17T01:25:33;63256.44;;;6.69;100.00
74372;BME280;62885;51.374;6.170;2024-03-17T01:28:02;63260.06;;;6.67;100.00
74372;BME280;62885;51.374;6.170;2024-03-17T01:30:28;63248.31;;;6.61;100.00
74372;BME280;62885;51.374;6.170;2024-03-17T01:32:53;63244.44;;;6.55;100.00
74372;BME280;62885;51.374;6.170;2024-03-17T01:35:18;63249.25;;;6.57;100.00
74372;BME280;62885;51.374;6.170;2024-03-17T01:37:45;63243.28;;;6.51;100.00
74372;BME280;62885;51.374;6.170;2024-03-17T01:40:11;63235.28;;;6.49;100.00
74372;BME280;62885;51.374;6.170;2024-03-17T01:42:40;63241.88;;;6.57;100.00
74372;BME280;62885;51.374;6.170;2024-03-17T01:45:27;63232.59;;;6.46;100.00
74372;BME280;62885;51.374;6.170;2024-03-17T01:47:53;63239.63;;;6.53;100.00
74372;BME280;62885;51.374;6.170;2024-03-17T01:50:19;63239.03;;;6.50;100.00
74372;BME280;62885;51.374;6.170;2024-03-17T01:52:53;63230.88;;;6.42;100.00
74372;BME280;62885;51.374;6.170;2024-03-17T01:55:21;63220.75;;;6.38;100.00
74372;BME280;62885;51.374;6.170;2024-03-17T01:57:48;63222.28;;;6.37;100.00
74372;BME280;62885;51.374;6.170;2024-03-17T02:00:14;63224.38;;;6.36;100.00
74372;BME280;62885;51.374;6.170;2024-03-17T02:02:40;63223.97;;;6.41;100.00
74372;BME280;62885;51.374;6.170;2024-03-17T02:05:05;63223.84;;;6.36;100.00
74372;BME280;62885;51.374;6.170;2024-03-17T02:07:31;63215.25;;;6.30;100.00
74372;BME280;62885;51.374;6.170;2024-03-17T02:09:56;63213.53;;;6.26;100.00
74372;BME280;62885;51.374;6.170;2024-03-17T02:12:23;63228.50;;;6.33;100.00
74372;BME280;62885;51.374;6.170;2024-03-17T02:14:48;63227.09;;;6.39;100.00
74372;BME280;62885;51.374;6.170;2024-03-17T02:17:13;63211.91;;;6.25;100.00
74372;BME280;62885;51.374;6.170;2024-03-17T02:19:39;63211.91;;;6.25;100.00
74372;BME280;62885;51.374;6.170;2024-03-17T02:22:12;63214.63;;;6.27;100.00
74372;BME280;62885;51.374;6.170;2024-03-17T02:24:38;63213.09;;;6.28;100.00
74372;BME280;62885;51.374;6.170;2024-03-17T02:27:03;63219.50;;;6.32;100.00
74372;BME280;62885;51.374;6.170;2024-03-17T02:29:29;63230.88;;;6.42;100.00
74372;BME280;62885;51.374;6.170;2024-03-17T02:31:54;63229.25;;;6.41;100.00
74372;BME280;62885;51.374;6.170;2024-03-17T02:34:20;63228.72;;;6.40;100.00
74372;BME280;62885;51.374;6.170;2024-03-17T02:36:45;63225.56;;;6.40;100.00
74372;BME280;62885;51.374;6.170;2024-03-17T02:39:10;63222.78;;;6.35;100.00
74372;BME280;62885;51.374;6.170;2024-03-17T02:41:54;63209.81;;;6.25;100.00
74372;BME280;62885;51.374;6.170;2024-03-17T02:44:19;63213.47;;;6.24;100.00
74372;BME280;62885;51.374;6.170;2024-03-17T02:46:45;63226.47;;;6.36;100.00
74372;BME280;62885;51.374;6.170;2024-03-17T02:49:10;63221.19;;;6.36;100.00
74372;BME280;62885;51.374;6.170;2024-03-17T02:51:39;63222.13;;;6.32;100.00
74372;BME280;62885;51.374;6.170;2024-03-17T02:54:04;63225.41;;;6.35;100.00
74372;BME280;62885;51.374;6.170;2024-03-17T02:56:31;63215.72;;;6.28;100.00
74372;BME280;62885;51.374;6.170;2024-03-17T02:58:57;63208.69;;;6.22;100.00
74372;BME280;62885;51.374;6.170;2024-03-17T03:01:22;63207.13;;;6.23;100.00
74372;BME280;62885;51.374;6.170;2024-03-17T03:03:47;63206.50;;;6.19;100.00
74372;BME280;62885;51.374;6.170;2024-03-17T03:06:13;63213.00;;;6.26;100.00
74372;BME280;62885;51.374;6.170;2024-03-17T03:08:39;63215.09;;;6.25;100.00
74372;BME280;62885;51.374;6.170;2024-03-17T03:11:07;63211.53;;;6.29;100.00
74372;BME280;62885;51.374;6.170;2024-03-17T03:13:36;63227.94;;;6.32;100.00
74372;BME280;62885;51.374;6.170;2024-03-17T03:16:01;63217.50;;;6.35;100.00
74372;BME280;62885;51.374;6.170;2024-03-17T03:18:27;63216.88;;;6.32;100.00
74372;BME280;62885;51.374;6.170;2024-03-17T03:20:52;63225.47;;;6.37;100.00
74372;BME280;62885;51.374;6.170;2024-03-17T03:23:18;63227.09;;;6.39;100.00
74372;BME280;62885;51.374;6.170;2024-03-17T03:25:44;63233.13;;;6.47;100.00
74372;BME280;62885;51.374;6.170;2024-03-17T03:28:09;63232.59;;;6.46;100.00
74372;BME280;62885;51.374;6.170;2024-03-17T03:30:38;63245.44;;;6.53;100.00
74372;BME280;62885;51.374;6.170;2024-03-17T03:33:04;63250.25;;;6.55;100.00
74372;BME280;62885;51.374;6.170;2024-03-17T03:35:30;63239.63;;;6.53;100.00
74372;BME280;62885;51.374;6.170;2024-03-17T03:37:56;63239.63;;;6.53;100.00
74372;BME280;62885;51.374;6.170;2024-03-17T03:40:21;63234.84;;;6.51;100.00
74372;BME280;62885;51.374;6.170;2024-03-17T03:42:47;63253.97;;;6.56;100.00
74372;BME280;62885;51.374;6.170;2024-03-17T03:45:12;63251.47;;;6.62;100.00
74372;BME280;62885;51.374;6.170;2024-03-17T03:47:42;63263.31;;;6.70;100.00
74372;BME280;62885;51.374;6.170;2024-03-17T03:50:10;63261.84;;;6.74;100.00
74372;BME280;62885;51.374;6.170;2024-03-17T03:52:37;63266.13;;;6.75;100.00
74372;BME280;62885;51.374;6.170;2024-03-17T03:55:03;63265.03;;;6.74;100.00
74372;BME280;62885;51.374;6.170;2024-03-17T03:57:32;63266.19;;;6.78;100.00
74372;BME280;62885;51.374;6.170;2024-03-17T03:59:59;63274.25;;;6.83;100.00
74372;BME280;62885;51.374;6.170;2024-03-17T04:02:24;63273.84;;;6.87;100.00
74372;BME280;62885;51.374;6.170;2024-03-17T04:04:52;63274.72;;;6.81;100.00
74372;BME280;62885;51.374;6.170;2024-03-17T04:07:18;63278.06;;;6.86;100.00
74372;BME280;62885;51.374;6.170;2024-03-17T04:09:43;63279.66;;;6.88;100.00
74372;BME280;62885;51.374;6.170;2024-03-17T04:12:08;63278.75;;;6.92;100.00
74372;BME280;62885;51.374;6.170;2024-03-17T04:14:34;63278.06;;;6.86;100.00
74372;BME280;62885;51.374;6.170;2024-03-17T04:16:59;63284.47;;;6.90;100.00
74372;BME280;62885;51.374;6.170;2024-03-17T04:19:24;63280.34;;;6.93;100.00
74372;BME280;62885;51.374;6.170;2024-03-17T04:21:51;63274.78;;;6.83;100.00
74372;BME280;62885;51.374;6.170;2024-03-17T04:24:16;63274.25;;;6.83;100.00
74372;BME280;62885;51.374;6.170;2024-03-17T04:26:41;63272.16;;;6.83;100.00
74372;BME280;62885;51.374;6.170;2024-03-17T04:29:08;63273.16;;;6.82;100.00
74372;BME280;62885;51.374;6.170;2024-03-17T04:31:33;63261.84;;;6.74;100.00
74372;BME280;62885;51.374;6.170;2024-03-17T04:33:59;63255.91;;;6.68;100.00
74372;BME280;62885;51.374;6.170;2024-03-17T04:36:24;63259.63;;;6.69;100.00
74372;BME280;62885;51.374;6.170;2024-03-17T04:38:50;63266.66;;;6.76;100.00
74372;BME280;62885;51.374;6.170;2024-03-17T04:41:19;63261.31;;;6.73;100.00
74372;BME280;62885;51.374;6.170;2024-03-17T04:43:44;63250.47;;;6.63;100.00
74372;BME280;62885;51.374;6.170;2024-03-17T04:46:09;63249.31;;;6.59;100.00
74372;BME280;62885;51.374;6.170;2024-03-17T04:48:37;63250.94;;;6.61;100.00
74372;BME280;62885;51.374;6.170;2024-03-17T04:51:03;63258.00;;;6.68;100.00
74372;BME280;62885;51.374;6.170;2024-03-17T04:53:28;63255.28;;;6.65;100.00
74372;BME280;62885;51.374;6.170;2024-03-17T04:56:05;63253.66;;;6.64;100.00
74372;BME280;62885;51.374;6.170;2024-03-17T04:58:34;63250.84;;;6.58;100.00
74372;BME280;62885;51.374;6.170;2024-03-17T05:01:06;63242.88;;;6.56;100.00
74372;BME280;62885;51.374;6.170;2024-03-17T05:03:33;63245.06;;;6.58;100.00
74372;BME280;62885;51.374;6.170;2024-03-17T05:06:02;63242.25;;;6.53;100.00
74372;BME280;62885;51.374;6.170;2024-03-17T05:08:31;63242.25;;;6.53;100.00
74372;BME280;62885;51.374;6.170;2024-03-17T05:11:01;63235.38;;;6.51;100.00
74372;BME280;62885;51.374;6.170;2024-03-17T05:13:30;63232.59;;;6.46;100.00
74372;BME280;62885;51.374;6.170;2024-03-17T05:15:56;63236.84;;;6.48;100.00
74372;BME280;62885;51.374;6.170;2024-03-17T05:18:22;63234.06;;;6.43;100.00
74372;BME280;62885;51.374;6.170;2024-03-17T05:20:57;63238.38;;;6.47;100.00
74372;BME280;62885;51.374;6.170;2024-03-17T05:23:25;63236.38;;;6.50;100.00
74372;BME280;62885;51.374;6.170;2024-03-17T05:25:51;63233.06;;;6.44;100.00
74372;BME280;62885;51.374;6.170;2024-03-17T05:28:17;63226.09;;;6.40;100.00
74372;BME280;62885;51.374;6.170;2024-03-17T05:30:42;63238.31;;;6.44;100.00
74372;BME280;62885;51.374;6.170;2024-03-17T05:33:07;63227.09;;;6.39;100.00
74372;BME280;62885;51.374;6.170;2024-03-17T05:35:33;63230.34;;;6.42;100.00
74372;BME280;62885;51.374;6.170;2024-03-17T05:37:58;63218.56;;;6.36;100.00
74372;BME280;62885;51.374;6.170;2024-03-17T05:40:24;63223.28;;;6.35;100.00
74372;BME280;62885;51.374;6.170;2024-03-17T05:42:49;63221.69;;;6.34;100.00
74372;BME280;62885;51.374;6.170;2024-03-17T05:45:15;63222.78;;;6.35;100.00
74372;BME280;62885;51.374;6.170;2024-03-17T05:47:41;63230.81;;;6.40;100.00
74372;BME280;62885;51.374;6.170;2024-03-17T05:50:07;63213.00;;;6.26;100.00
74372;BME280;62885;51.374;6.170;2024-03-17T05:52:32;63216.78;;;6.29;100.00
74372;BME280;62885;51.374;6.170;2024-03-17T05:54:58;63222.78;;;6.35;100.00
74372;BME280;62885;51.374;6.170;2024-03-17T05:57:23;63220.13;;;6.35;100.00
74372;BME280;62885;51.374;6.170;2024-03-17T05:59:49;63215.72;;;6.28;100.00
74372;BME280;62885;51.374;6.170;2024-03-17T06:02:15;63214.16;;;6.29;100.00
74372;BME280;62885;51.374;6.170;2024-03-17T06:04:41;63220.06;;;6.32;100.00
74372;BME280;62885;51.374;6.170;2024-03-17T06:07:07;63224.38;;;6.36;100.00
74372;BME280;62885;51.374;6.170;2024-03-17T06:09:32;63219.66;;;6.37;100.00
74372;BME280;62885;51.374;6.170;2024-03-17T06:11:57;63238.94;;;6.47;100.00
74372;BME280;62885;51.374;6.170;2024-03-17T06:14:23;63232.97;;;6.42;100.00
74372;BME280;62885;51.374;6.170;2024-03-17T06:16:48;63233.59;;;6.45;100.00
74372;BME280;62885;51.374;6.170;2024-03-17T06:19:14;63239.63;;;6.53;100.00
74372;BME280;62885;51.374;6.170;2024-03-17T06:21:40;63242.34;;;6.55;100.00
74372;BME280;62885;51.374;6.170;2024-03-17T06:24:05;63242.25;;;6.53;100.00
74372;BME280;62885;51.374;6.170;2024-03-17T06:26:34;63227.16;;;6.41;100.00
74372;BME280;62885;51.374;6.170;2024-03-17T06:29:01;63241.19;;;6.52;100.00
74372;BME280;62885;51.374;6.170;2024-03-17T06:31:26;63285.00;;;6.90;100.00
74372;BME280;62885;51.374;6.170;2024-03-17T06:33:51;63325.16;;;7.28;100.00
74372;BME280;62885;51.374;6.170;2024-03-17T06:36:17;63363.75;;;7.66;100.00
74372;BME280;62885;51.374;6.170;2024-03-17T06:38:43;63420.03;;;8.14;100.00
74372;BME280;62885;51.374;6.170;2024-03-17T06:41:11;63548.53;;;9.43;96.60
74372;BME280;62885;51.374;6.170;2024-03-17T06:43:40;63669.22;;;10.53;87.43
74372;BME280;62885;51.374;6.170;2024-03-17T06:46:07;63735.59;;;11.15;84.02
74372;BME280;62885;51.374;6.170;2024-03-17T06:48:35;63779.78;;;11.59;80.40
74372;BME280;62885;51.374;6.170;2024-03-17T06:51:00;63591.41;;;9.81;86.64
74372;BME280;62885;51.374;6.170;2024-03-17T06:53:26;63431.56;;;8.30;97.96
74372;BME280;62885;51.374;6.170;2024-03-17T06:55:58;63368.63;;;7.71;100.00
74372;BME280;62885;51.374;6.170;2024-03-17T06:58:25;63351.88;;;7.58;100.00
74372;BME280;62885;51.374;6.170;2024-03-17T07:00:59;63337.69;;;7.42;100.00
74372;BME280;62885;51.374;6.170;2024-03-17T07:03:27;63337.09;;;7.39;100.00
74372;BME280;62885;51.374;6.170;2024-03-17T07:05:57;63345.22;;;7.47;100.00
74372;BME280;62885;51.374;6.170;2024-03-17T07:08:23;63328.47;;;7.33;100.00
74372;BME280;62885;51.374;6.170;2024-03-17T07:11:05;63345.84;;;7.50;100.00
74372;BME280;62885;51.374;6.170;2024-03-17T07:13:35;63364.19;;;7.64;100.00
74372;BME280;62885;51.374;6.170;2024-03-17T07:16:02;63385.50;;;7.89;100.00
74372;BME280;62885;51.374;6.170;2024-03-17T07:18:29;63389.31;;;7.93;100.00
74372;BME280;62885;51.374;6.170;2024-03-17T07:21:03;63366.44;;;7.69;100.00
74372;BME280;62885;51.374;6.170;2024-03-17T07:23:29;63364.81;;;7.67;100.00
74372;BME280;62885;51.374;6.170;2024-03-17T07:25:56;63363.75;;;7.66;100.00
74372;BME280;62885;51.374;6.170;2024-03-17T07:28:22;63380.00;;;7.81;100.00
74372;BME280;62885;51.374;6.170;2024-03-17T07:30:56;63388.22;;;7.92;100.00
74372;BME280;62885;51.374;6.170;2024-03-17T07:33:23;63401.31;;;8.06;100.00
74372;BME280;62885;51.374;6.170;2024-03-17T07:35:58;63411.56;;;8.13;100.00
74372;BME280;62885;51.374;6.170;2024-03-17T07:38:27;63396.75;;;7.95;100.00
74372;BME280;62885;51.374;6.170;2024-03-17T07:40:59;63399.09;;;8.02;100.00
74372;BME280;62885;51.374;6.170;2024-03-17T07:43:26;63398.00;;;8.01;100.00
74372;BME280;62885;51.374;6.170;2024-03-17T07:46:01;63406.75;;;8.11;100.00
74372;BME280;62885;51.374;6.170;2024-03-17T07:48:27;63425.16;;;8.26;100.00
74372;BME280;62885;51.374;6.170;2024-03-17T07:50:57;63424.13;;;8.27;100.00
74372;BME280;62885;51.374;6.170;2024-03-17T07:53:24;63445.25;;;8.45;100.00
74372;BME280;62885;51.374;6.170;2024-03-17T07:55:59;63444.22;;;8.46;100.00
74372;BME280;62885;51.374;6.170;2024-03-17T07:58:25;63455.03;;;8.54;100.00
74372;BME280;62885;51.374;6.170;2024-03-17T08:00:57;63477.28;;;8.75;100.00
74372;BME280;62885;51.374;6.170;2024-03-17T08:03:25;63481.09;;;8.78;100.00
74372;BME280;62885;51.374;6.170;2024-03-17T08:05:50;63498.00;;;8.96;99.55
74372;BME280;62885;51.374;6.170;2024-03-17T08:08:17;63525.72;;;9.22;98.48
74372;BME280;62885;51.374;6.170;2024-03-17T08:10:43;63521.53;;;9.43;97.03
74372;BME280;62885;51.374;6.170;2024-03-17T08:13:08;63554.91;;;9.44;95.31
74372;BME280;62885;51.374;6.170;2024-03-17T08:15:34;63558.19;;;9.47;95.39
74372;BME280;62885;51.374;6.170;2024-03-17T08:17:59;63572.38;;;9.63;95.06
74372;BME280;62885;51.374;6.170;2024-03-17T08:20:25;63584.34;;;9.74;94.17
74372;BME280;62885;51.374;6.170;2024-03-17T08:22:50;63589.31;;;9.81;94.49
74372;BME280;62885;51.374;6.170;2024-03-17T08:25:16;63612.53;;;9.98;93.64
74372;BME280;62885;51.374;6.170;2024-03-17T08:27:42;63585.63;;;10.03;93.99
74372;BME280;62885;51.374;6.170;2024-03-17T08:30:14;63629.50;;;10.16;93.21
74372;BME280;62885;51.374;6.170;2024-03-17T08:32:40;63638.81;;;10.27;93.20
74372;BME280;62885;51.374;6.170;2024-03-17T08:35:06;63643.16;;;10.32;92.09
74372;BME280;62885;51.374;6.170;2024-03-17T08:37:32;63627.84;;;10.15;91.79
74372;BME280;62885;51.374;6.170;2024-03-17T08:39:58;63631.19;;;10.20;91.98
74372;BME280;62885;51.374;6.170;2024-03-17T08:42:23;63625.69;;;10.13;92.90
74372;BME280;62885;51.374;6.170;2024-03-17T08:44:50;63626.16;;;10.11;93.00
74372;BME280;62885;51.374;6.170;2024-03-17T08:47:15;63612.69;;;10.03;93.08
74372;BME280;62885;51.374;6.170;2024-03-17T08:49:41;63617.03;;;10.07;92.96
74372;BME280;62885;51.374;6.170;2024-03-17T08:52:07;63623.34;;;10.06;92.87
74372;BME280;62885;51.374;6.170;2024-03-17T08:54:33;63616.81;;;10.00;92.85
74372;BME280;62885;51.374;6.170;2024-03-17T08:56:58;63591.47;;;9.83;93.66
74372;BME280;62885;51.374;6.170;2024-03-17T08:59:24;63621.84;;;10.09;92.87
74372;BME280;62885;51.374;6.170;2024-03-17T09:01:50;63636.56;;;10.23;92.74
74372;BME280;62885;51.374;6.170;2024-03-17T09:04:15;63653.50;;;10.41;92.40
74372;BME280;62885;51.374;6.170;2024-03-17T09:06:41;63653.50;;;10.41;91.97
74372;BME280;62885;51.374;6.170;2024-03-17T09:09:07;63668.53;;;10.48;91.55
74372;BME280;62885;51.374;6.170;2024-03-17T09:11:33;63654.53;;;10.40;91.82
74372;BME280;62885;51.374;6.170;2024-03-17T09:13:58;63655.06;;;10.40;92.00
74372;BME280;62885;51.374;6.170;2024-03-17T09:16:24;63649.69;;;10.38;91.66
74372;BME280;62885;51.374;6.170;2024-03-17T09:18:51;63658.94;;;10.46;91.79
74372;BME280;62885;51.374;6.170;2024-03-17T09:21:16;63668.66;;;10.53;91.74
74372;BME280;62885;51.374;6.170;2024-03-17T09:23:42;63679.53;;;10.63;91.52
74372;BME280;62885;51.374;6.170;2024-03-17T09:26:09;63689.41;;;10.75;90.68
74372;BME280;62885;51.374;6.170;2024-03-17T09:28:36;63692.59;;;10.75;90.10
74372;BME280;62885;51.374;6.170;2024-03-17T09:31:02;63680.69;;;10.66;90.01
74372;BME280;62885;51.374;6.170;2024-03-17T09:33:30;63699.13;;;10.81;90.14
74372;BME280;62885;51.374;6.170;2024-03-17T09:35:57;63708.78;;;10.85;89.90
74372;BME280;62885;51.374;6.170;2024-03-17T09:38:23;63709.00;;;10.93;89.33
74372;BME280;62885;51.374;6.170;2024-03-17T09:40:49;63724.19;;;11.04;89.12
74372;BME280;62885;51.374;6.170;2024-03-17T09:43:17;63713.91;;;10.97;89.52
74372;BME280;62885;51.374;6.170;2024-03-17T09:45:43;63723.63;;;11.04;89.35
74372;BME280;62885;51.374;6.170;2024-03-17T09:48:14;63726.41;;;11.09;88.84
74372;BME280;62885;51.374;6.170;2024-03-17T09:50:40;63734.59;;;11.17;89.53
74372;BME280;62885;51.374;6.170;2024-03-17T09:53:06;63766.44;;;11.36;89.12
74372;BME280;62885;51.374;6.170;2024-03-17T09:55:36;63748.75;;;11.30;88.43
74372;BME280;62885;51.374;6.170;2024-03-17T09:58:02;63754.06;;;11.30;88.57
74372;BME280;62885;51.374;6.170;2024-03-17T10:00:27;63737.97;;;11.44;87.92
74372;BME280;62885;51.374;6.170;2024-03-17T10:02:52;63775.28;;;11.49;88.07
74372;BME280;62885;51.374;6.170;2024-03-17T10:05:23;63740.69;;;11.47;88.15
74372;BME280;62885;51.374;6.170;2024-03-17T10:07:49;63776.38;;;11.50;87.91
74372;BME280;62885;51.374;6.170;2024-03-17T10:10:16;63782.50;;;11.61;87.28
74372;BME280;62885;51.374;6.170;2024-03-17T10:12:42;63795.59;;;11.73;87.50
74372;BME280;62885;51.374;6.170;2024-03-17T10:15:10;63784.28;;;11.87;86.50
74372;BME280;62885;51.374;6.170;2024-03-17T10:17:36;63835.38;;;12.10;85.96
74372;BME280;62885;51.374;6.170;2024-03-17T10:20:21;63827.00;;;11.95;85.90
74372;BME280;62885;51.374;6.170;2024-03-17T10:23:07;63841.31;;;12.13;86.20
74372;BME280;62885;51.374;6.170;2024-03-17T10:25:38;63848.38;;;12.20;85.57
74372;BME280;62885;51.374;6.170;2024-03-17T10:28:12;63804.31;;;11.81;86.38
74372;BME280;62885;51.374;6.170;2024-03-17T10:30:39;63821.13;;;11.94;86.08
74372;BME280;62885;51.374;6.170;2024-03-17T10:33:06;63843.47;;;12.15;84.45
74372;BME280;62885;51.374;6.170;2024-03-17T10:35:35;63851.25;;;12.27;83.46
74372;BME280;62885;51.374;6.170;2024-03-17T10:38:03;63849.00;;;12.23;82.59
74372;BME280;62885;51.374;6.170;2024-03-17T10:40:30;63866.91;;;12.37;82.54
74372;BME280;62885;51.374;6.170;2024-03-17T10:42:57;63877.88;;;12.50;82.24
74372;BME280;62885;51.374;6.170;2024-03-17T10:45:23;63884.91;;;12.54;81.62
74372;BME280;62885;51.374;6.170;2024-03-17T10:47:51;63895.28;;;12.63;81.54
74372;BME280;62885;51.374;6.170;2024-03-17T10:50:21;63895.94;;;12.69;81.44
74372;BME280;62885;51.374;6.170;2024-03-17T10:52:49;63914.34;;;12.81;81.09
74372;BME280;62885;51.374;6.170;2024-03-17T10:55:20;63942.22;;;13.09;80.92
74372;BME280;62885;51.374;6.170;2024-03-17T10:57:46;63944.97;;;13.12;79.47
74372;BME280;62885;51.374;6.170;2024-03-17T11:00:16;63911.78;;;13.06;79.73
74372;BME280;62885;51.374;6.170;2024-03-17T11:02:44;63959.09;;;13.23;79.45
74372;BME280;62885;51.374;6.170;2024-03-17T11:05:14;63953.72;;;13.20;79.50
74372;BME280;62885;51.374;6.170;2024-03-17T11:07:42;63956.38;;;13.20;79.87
74372;BME280;62885;51.374;6.170;2024-03-17T11:10:20;63967.34;;;13.33;79.97
74372;BME280;62885;51.374;6.170;2024-03-17T11:12:54;63925.25;;;13.33;80.29
74372;BME280;62885;51.374;6.170;2024-03-17T11:17:51;63959.03;;;13.20;81.65
74372;BME280;62885;51.374;6.170;2024-03-17T11:20:21;63948.31;;;13.18;81.19
74372;BME280;62885;51.374;6.170;2024-03-17T11:22:49;63960.81;;;13.27;80.81
74372;BME280;62885;51.374;6.170;2024-03-17T11:27:57;63950.91;;;13.15;81.75
74372;BME280;62885;51.374;6.170;2024-03-17T11:47:06;63965.06;;;13.70;79.59
74372;BME280;62885;51.374;6.170;2024-03-17T11:49:37;64009.97;;;13.75;78.89
74372;BME280;62885;51.374;6.170;2024-03-17T11:52:13;64025.69;;;13.84;78.47
74372;BME280;62885;51.374;6.170;2024-03-17T11:54:40;64027.78;;;13.84;79.07
74372;BME280;62885;51.374;6.170;2024-03-17T11:57:11;64016.47;;;13.78;78.64
74372;BME280;62885;51.374;6.170;2024-03-17T11:59:37;64015.84;;;13.75;78.89
74372;BME280;62885;51.374;6.170;2024-03-17T12:02:10;63989.16;;;13.53;79.51
74372;BME280;62885;51.374;6.170;2024-03-17T12:04:39;64009.97;;;13.75;79.77
74372;BME280;62885;51.374;6.170;2024-03-17T12:07:11;64026.16;;;13.82;79.44
74372;BME280;62885;51.374;6.170;2024-03-17T12:09:37;64025.13;;;13.84;79.77
74372;BME280;62885;51.374;6.170;2024-03-17T12:14:28;64009.84;;;13.70;79.26
74372;BME280;62885;51.374;6.170;2024-03-17T12:16:55;64016.38;;;13.76;80.04
74372;BME280;62885;51.374;6.170;2024-03-17T12:19:22;64015.34;;;13.77;79.90
74372;BME280;62885;51.374;6.170;2024-03-17T12:21:49;64022.34;;;13.79;79.72
74372;BME280;62885;51.374;6.170;2024-03-17T12:24:20;64027.91;;;13.89;79.84
74372;BME280;62885;51.374;6.170;2024-03-17T12:26:47;64047.50;;;14.05;79.37
74372;BME280;62885;51.374;6.170;2024-03-17T12:29:23;64042.13;;;14.02;79.01
74372;BME280;62885;51.374;6.170;2024-03-17T12:31:57;64003.78;;;14.06;78.91
74372;BME280;62885;51.374;6.170;2024-03-17T12:34:25;64066.59;;;14.22;78.65
74372;BME280;62885;51.374;6.170;2024-03-17T12:36:55;64049.81;;;14.12;79.09
74372;BME280;62885;51.374;6.170;2024-03-17T12:39:27;64023.97;;;14.25;78.46
74372;BME280;62885;51.374;6.170;2024-03-17T12:47:34;64072.69;;;14.30;78.36
74372;BME280;62885;51.374;6.170;2024-03-17T12:50:01;64037.09;;;14.37;78.30
74372;BME280;62885;51.374;6.170;2024-03-17T12:52:31;64082.47;;;14.37;78.32
74372;BME280;62885;51.374;6.170;2024-03-17T12:55:05;64069.91;;;14.25;78.05
74372;BME280;62885;51.374;6.170;2024-03-17T13:00:33;64061.78;;;14.20;78.37
74372;BME280;62885;51.374;6.170;2024-03-17T13:03:05;64078.69;;;14.36;78.05
74372;BME280;62885;51.374;6.170;2024-03-17T13:05:31;64075.34;;;14.30;77.56
74372;BME280;62885;51.374;6.170;2024-03-17T13:07:57;64072.69;;;14.30;77.36
74372;BME280;62885;51.374;6.170;2024-03-17T13:10:26;64060.69;;;14.19;78.05
74372;BME280;62885;51.374;6.170;2024-03-17T13:13:04;64072.63;;;14.28;78.45
74372;BME280;62885;51.374;6.170;2024-03-17T13:15:31;64081.84;;;14.34;78.24
74372;BME280;62885;51.374;6.170;2024-03-17T13:17:57;64029.44;;;14.30;78.12
74372;BME280;62885;51.374;6.170;2024-03-17T13:20:23;64091.28;;;14.48;78.34
74372;BME280;62885;51.374;6.170;2024-03-17T13:22:49;64087.88;;;14.39;78.27
74372;BME280;62885;51.374;6.170;2024-03-17T13:25:16;64085.31;;;14.45;77.64
74372;BME280;62885;51.374;6.170;2024-03-17T13:27:47;64077.69;;;14.37;77.98
74372;BME280;62885;51.374;6.170;2024-03-17T13:30:13;64081.97;;;14.39;77.81
74372;BME280;62885;51.374;6.170;2024-03-17T13:32:39;64092.31;;;14.46;77.96